createdAt,value
2019-05-25T00:00:44.482Z,11.90
2019-05-25T00:03:13.487Z,11.80
2019-05-25T00:05:42.804Z,11.80
2019-05-25T00:08:11.795Z,11.80
2019-05-25T00:10:40.849Z,11.80
2019-05-25T00:13:09.889Z,11.80
2019-05-25T00:15:38.684Z,11.80
2019-05-25T00:18:07.500Z,11.90
2019-05-25T00:20:36.261Z,12.00
2019-05-25T00:23:05.020Z,12.00
2019-05-25T00:25:34.066Z,12.00
2019-05-25T00:28:02.855Z,12.10
2019-05-25T00:30:32.019Z,12.10
2019-05-25T00:33:00.834Z,12.10
2019-05-25T00:35:29.670Z,12.10
2019-05-25T00:37:58.510Z,12.20
2019-05-25T00:40:27.600Z,12.20
2019-05-25T00:42:56.654Z,12.20
2019-05-25T00:45:25.420Z,12.10
2019-05-25T00:47:54.225Z,12.10
2019-05-25T00:50:23.011Z,12.10
2019-05-25T00:52:51.779Z,12.10
2019-05-25T00:55:20.571Z,12.00
2019-05-25T00:57:49.436Z,12.00
2019-05-25T01:00:18.381Z,12.00
2019-05-25T01:02:47.277Z,11.90
2019-05-25T01:05:16.284Z,11.90
2019-05-25T01:07:45.402Z,11.90
2019-05-25T01:10:15.157Z,11.90
2019-05-25T01:12:43.910Z,11.90
2019-05-25T01:15:13.426Z,11.80
2019-05-25T01:17:42.531Z,11.80
2019-05-25T01:20:12.043Z,11.80
2019-05-25T01:22:40.803Z,11.80
2019-05-25T01:25:09.933Z,11.80
2019-05-25T01:27:38.766Z,11.70
2019-05-25T01:30:08.722Z,11.70
2019-05-25T01:32:37.633Z,11.70
2019-05-25T01:35:06.771Z,11.70
2019-05-25T01:37:35.552Z,11.70
2019-05-25T01:40:04.766Z,11.70
2019-05-25T01:42:33.645Z,11.80
2019-05-25T01:45:02.528Z,11.70
2019-05-25T01:47:31.612Z,11.70
2019-05-25T01:50:00.446Z,11.70
2019-05-25T01:52:29.311Z,11.70
2019-05-25T01:55:00.279Z,11.70
2019-05-25T01:57:28.953Z,11.70
2019-05-25T01:59:57.809Z,11.60
2019-05-25T02:02:26.697Z,11.60
2019-05-25T02:04:55.574Z,11.50
2019-05-25T02:07:24.396Z,11.50
2019-05-25T02:09:53.188Z,11.50
2019-05-25T02:12:22.188Z,11.40
2019-05-25T02:14:51.177Z,11.40
2019-05-25T02:17:20.209Z,11.40
2019-05-25T02:19:49.312Z,11.40
2019-05-25T02:22:18.191Z,11.30
2019-05-25T02:24:47.223Z,11.30
2019-05-25T02:27:16.337Z,11.30
2019-05-25T02:29:45.445Z,11.30
2019-05-25T02:32:14.236Z,11.40
2019-05-25T02:34:43.269Z,11.40
2019-05-25T02:37:12.027Z,11.40
2019-05-25T02:39:40.805Z,11.40
2019-05-25T02:42:09.875Z,11.40
2019-05-25T02:44:38.631Z,11.40
2019-05-25T02:47:07.428Z,11.50
2019-05-25T02:49:36.314Z,11.50
2019-05-25T02:52:05.716Z,11.50
2019-05-25T02:54:34.492Z,11.50
2019-05-25T02:57:03.505Z,11.50
2019-05-25T02:59:32.356Z,11.50
2019-05-25T03:02:01.319Z,11.50
2019-05-25T03:04:30.195Z,11.50
2019-05-25T03:06:59.349Z,11.50
2019-05-25T03:09:30.124Z,11.50
2019-05-25T03:11:59.823Z,11.60
2019-05-25T03:14:28.676Z,11.60
2019-05-25T03:16:57.641Z,11.60
2019-05-25T03:19:26.524Z,11.60
2019-05-25T03:21:55.688Z,11.70
2019-05-25T03:24:24.456Z,11.70
2019-05-25T03:26:53.299Z,11.70
2019-05-25T03:29:22.633Z,11.70
2019-05-25T03:31:51.508Z,11.70
2019-05-25T03:34:20.375Z,11.70
2019-05-25T03:36:49.439Z,11.70
2019-05-25T03:39:18.324Z,11.70
2019-05-25T03:41:47.091Z,11.60
2019-05-25T03:44:16.303Z,11.60
2019-05-25T03:46:45.620Z,11.50
2019-05-25T03:49:14.728Z,11.50
2019-05-25T03:51:43.619Z,11.50
2019-05-25T03:54:12.579Z,11.40
2019-05-25T03:56:41.641Z,11.40
2019-05-25T03:59:10.601Z,11.30
2019-05-25T04:01:39.580Z,11.40
2019-05-25T04:04:08.691Z,11.40
2019-05-25T04:06:37.610Z,11.40
2019-05-25T04:09:07.406Z,11.50
2019-05-25T04:11:36.294Z,11.50
2019-05-25T04:14:05.360Z,11.50
2019-05-25T04:16:34.248Z,11.60
2019-05-25T04:19:03.287Z,11.60
2019-05-25T04:21:32.255Z,11.60
2019-05-25T04:24:01.145Z,11.70
2019-05-25T04:26:30.508Z,11.80
2019-05-25T04:28:59.648Z,11.80
2019-05-25T04:31:28.590Z,12.00
2019-05-25T04:33:57.523Z,12.10
2019-05-25T04:36:26.426Z,12.20
2019-05-25T04:38:55.459Z,12.30
2019-05-25T04:41:24.384Z,12.30
2019-05-25T04:43:53.303Z,12.40
2019-05-25T04:46:22.143Z,12.50
2019-05-25T04:48:50.962Z,12.50
2019-05-25T04:51:20.044Z,12.60
2019-05-25T04:53:48.830Z,12.70
2019-05-25T04:56:17.725Z,12.80
2019-05-25T04:58:46.774Z,12.90
2019-05-25T05:01:15.615Z,13.00
2019-05-25T05:03:44.516Z,13.20
2019-05-25T05:06:13.646Z,13.30
2019-05-25T05:08:43.112Z,13.40
2019-05-25T05:11:12.404Z,13.50
2019-05-25T05:13:41.197Z,13.50
2019-05-25T05:16:10.052Z,13.60
2019-05-25T05:18:38.825Z,13.80
2019-05-25T05:21:07.740Z,14.00
2019-05-25T05:23:37.039Z,14.10
2019-05-25T05:26:05.990Z,14.20
2019-05-25T05:28:35.140Z,14.40
2019-05-25T05:31:04.194Z,14.60
2019-05-25T05:33:33.297Z,14.90
2019-05-25T05:36:03.885Z,15.00
2019-05-25T05:38:34.362Z,15.20
2019-05-25T05:41:04.190Z,15.30
2019-05-25T05:43:34.652Z,15.60
2019-05-25T05:46:05.207Z,15.70
2019-05-25T05:48:36.831Z,15.90
2019-05-25T05:51:07.396Z,16.00
2019-05-25T05:53:38.822Z,16.20
2019-05-25T05:56:07.544Z,16.40
2019-05-25T05:58:36.578Z,16.50
2019-05-25T06:01:05.369Z,16.70
2019-05-25T06:03:34.104Z,16.80
2019-05-25T06:06:03.121Z,16.90
2019-05-25T06:08:31.837Z,17.10
2019-05-25T06:11:00.564Z,17.10
2019-05-25T06:13:29.292Z,17.30
2019-05-25T06:15:58.339Z,17.30
2019-05-25T06:18:27.488Z,17.40
2019-05-25T06:20:56.216Z,17.50
2019-05-25T06:23:25.106Z,17.70
2019-05-25T06:25:54.201Z,17.80
2019-05-25T06:28:23.124Z,18.00
2019-05-25T06:30:51.851Z,18.10
2019-05-25T06:33:20.835Z,18.20
2019-05-25T06:35:49.868Z,18.30
2019-05-25T06:38:18.703Z,18.50
2019-05-25T06:40:47.499Z,18.90
2019-05-25T06:43:16.290Z,19.10
2019-05-25T06:45:45.144Z,19.60
2019-05-25T06:48:14.985Z,20.10
2019-05-25T06:50:43.951Z,20.30
2019-05-25T06:53:12.689Z,20.70
2019-05-25T06:55:41.512Z,21.40
2019-05-25T06:58:10.236Z,21.90
2019-05-25T07:00:42.056Z,22.00
2019-05-25T07:03:10.799Z,22.40
2019-05-25T07:05:39.495Z,22.90
2019-05-25T07:08:08.243Z,22.60
2019-05-25T07:10:37.119Z,22.80
2019-05-25T07:13:05.972Z,23.80
2019-05-25T07:15:34.744Z,23.40
2019-05-25T07:18:03.499Z,23.60
2019-05-25T07:20:32.215Z,23.70
2019-05-25T07:23:01.226Z,24.30
2019-05-25T07:25:30.094Z,25.20
2019-05-25T07:28:00.419Z,24.60
2019-05-25T07:30:29.339Z,24.40
2019-05-25T07:32:58.883Z,24.90
2019-05-25T07:35:27.935Z,24.30
2019-05-25T07:37:57.161Z,24.70
2019-05-25T07:40:25.893Z,24.20
2019-05-25T07:42:55.026Z,23.40
2019-05-25T07:45:23.836Z,23.00
2019-05-25T07:47:53.135Z,23.50
2019-05-25T07:50:21.907Z,24.10
2019-05-25T07:52:50.690Z,24.60
2019-05-25T07:55:19.488Z,24.70
2019-05-25T07:57:48.484Z,25.00
2019-05-25T08:00:17.441Z,25.40
2019-05-25T08:02:46.532Z,25.30
2019-05-25T08:05:15.677Z,25.20
2019-05-25T08:07:44.703Z,25.50
2019-05-25T08:10:14.511Z,25.60
2019-05-25T08:12:43.223Z,25.80
2019-05-25T08:15:12.452Z,25.60
2019-05-25T08:17:41.184Z,25.20
2019-05-25T08:20:10.061Z,25.10
2019-05-25T08:22:38.959Z,25.70
2019-05-25T08:25:07.944Z,25.90
2019-05-25T08:27:36.951Z,25.70
2019-05-25T08:30:06.077Z,25.60
2019-05-25T08:32:35.040Z,25.80
2019-05-25T08:35:04.136Z,26.30
2019-05-25T08:37:33.396Z,26.70
2019-05-25T08:40:02.376Z,26.40
2019-05-25T08:42:31.073Z,26.30
2019-05-25T08:44:59.771Z,25.80
2019-05-25T08:47:28.493Z,25.30
2019-05-25T08:49:57.304Z,24.00
2019-05-25T08:52:26.091Z,23.70
2019-05-25T08:54:56.748Z,23.30
2019-05-25T08:57:25.876Z,23.00
2019-05-25T08:59:54.647Z,22.60
2019-05-25T09:02:23.429Z,22.30
2019-05-25T09:04:52.182Z,22.20
2019-05-25T09:07:21.029Z,22.30
2019-05-25T09:09:49.819Z,22.30
2019-05-25T09:12:18.530Z,22.40
2019-05-25T09:14:49.816Z,22.40
2019-05-25T09:17:18.653Z,22.70
2019-05-25T09:19:47.608Z,22.60
2019-05-25T09:22:16.539Z,22.90
2019-05-25T09:24:45.479Z,23.40
2019-05-25T09:27:14.788Z,23.40
2019-05-25T09:29:43.604Z,23.50
2019-05-25T09:32:12.645Z,23.80
2019-05-25T09:34:41.410Z,24.30
2019-05-25T09:37:10.259Z,24.50
2019-05-25T09:39:39.021Z,24.80
2019-05-25T09:42:07.768Z,24.70
2019-05-25T09:44:36.480Z,24.70
2019-05-25T09:47:05.270Z,24.70
2019-05-25T09:49:34.098Z,25.00
2019-05-25T09:52:02.961Z,24.90
2019-05-25T09:54:31.800Z,24.50
2019-05-25T09:57:00.744Z,24.40
2019-05-25T09:59:29.457Z,24.10
2019-05-25T10:01:58.192Z,24.10
2019-05-25T10:04:26.927Z,24.70
2019-05-25T10:06:56.023Z,24.80
2019-05-25T10:09:24.849Z,25.20
2019-05-25T10:11:53.709Z,25.30
2019-05-25T10:14:26.643Z,24.80
2019-05-25T10:16:55.474Z,24.60
2019-05-25T10:19:25.611Z,24.10
2019-05-25T10:21:54.411Z,23.90
2019-05-25T10:24:23.615Z,23.80
2019-05-25T10:26:52.361Z,23.90
2019-05-25T10:29:36.183Z,24.30
2019-05-25T10:31:52.101Z,24.50
2019-05-25T10:34:20.835Z,24.50
2019-05-25T10:36:49.588Z,24.40
2019-05-25T10:39:18.761Z,24.10
2019-05-25T10:41:47.980Z,24.50
2019-05-25T10:44:16.719Z,24.50
2019-05-25T10:46:45.678Z,24.70
2019-05-25T10:49:14.483Z,24.90
2019-05-25T10:51:43.455Z,24.30
2019-05-25T10:54:12.253Z,24.20
2019-05-25T10:56:44.669Z,23.70
2019-05-25T10:59:14.105Z,23.70
2019-05-25T11:01:42.895Z,23.40
2019-05-25T11:04:11.921Z,23.20
2019-05-25T11:06:40.730Z,23.30
2019-05-25T11:09:09.480Z,23.50
2019-05-25T11:11:38.581Z,23.50
2019-05-25T11:14:07.655Z,23.60
2019-05-25T11:16:36.594Z,23.60
2019-05-25T11:19:05.576Z,23.20
2019-05-25T11:21:34.669Z,23.30
2019-05-25T11:24:03.535Z,23.00
2019-05-25T11:26:32.335Z,22.90
2019-05-25T11:29:01.136Z,23.30
2019-05-25T11:31:30.297Z,23.60
2019-05-25T11:33:59.094Z,23.30
2019-05-25T11:36:28.111Z,23.30
2019-05-25T11:38:57.136Z,23.00
2019-05-25T11:41:27.427Z,22.80
2019-05-25T11:43:56.387Z,22.70
2019-05-25T11:46:25.152Z,22.50
2019-05-25T11:48:53.954Z,22.20
2019-05-25T11:51:22.931Z,22.00
2019-05-25T11:53:52.026Z,22.00
2019-05-25T11:56:20.799Z,22.00
2019-05-25T11:58:49.631Z,21.90
2019-05-25T12:01:18.413Z,21.90
2019-05-25T12:03:47.428Z,22.00
2019-05-25T12:06:16.663Z,21.90
2019-05-25T12:08:47.880Z,21.90
2019-05-25T12:11:16.788Z,21.70
2019-05-25T12:13:45.573Z,21.60
2019-05-25T12:16:14.536Z,21.80
2019-05-25T12:18:43.450Z,22.10
2019-05-25T12:21:12.429Z,22.10
2019-05-25T12:23:41.512Z,21.90
2019-05-25T12:26:10.617Z,21.70
2019-05-25T12:28:39.472Z,21.50
2019-05-25T12:31:08.579Z,21.60
2019-05-25T12:33:37.853Z,21.50
2019-05-25T12:36:07.482Z,21.40
2019-05-25T12:38:36.729Z,21.40
2019-05-25T12:41:05.897Z,21.50
2019-05-25T12:43:34.836Z,21.70
2019-05-25T12:46:03.978Z,21.70
2019-05-25T12:48:33.270Z,22.00
2019-05-25T12:51:02.191Z,22.20
2019-05-25T12:53:30.936Z,22.30
2019-05-25T12:56:00.377Z,22.60
2019-05-25T12:58:29.610Z,22.50
2019-05-25T13:00:58.762Z,22.60
2019-05-25T13:03:28.412Z,22.30
2019-05-25T13:05:57.588Z,22.00
2019-05-25T13:08:26.719Z,21.90
2019-05-25T13:10:55.778Z,21.70
2019-05-25T13:13:24.519Z,21.60
2019-05-25T13:15:53.291Z,21.30
2019-05-25T13:18:22.338Z,21.30
2019-05-25T13:20:51.085Z,21.00
2019-05-25T13:23:22.913Z,21.20
2019-05-25T13:25:51.715Z,21.30
2019-05-25T13:28:20.629Z,21.70
2019-05-25T13:30:49.408Z,21.80
2019-05-25T13:33:18.158Z,21.80
2019-05-25T13:35:46.979Z,21.90
2019-05-25T13:38:15.826Z,21.90
2019-05-25T13:40:44.727Z,21.70
2019-05-25T13:43:13.606Z,21.60
2019-05-25T13:45:45.799Z,21.70
2019-05-25T13:48:12.831Z,21.80
2019-05-25T13:50:41.780Z,21.50
2019-05-25T13:53:10.774Z,21.40
2019-05-25T13:55:39.574Z,21.30
2019-05-25T13:58:08.669Z,21.30
2019-05-25T14:00:37.483Z,21.10
2019-05-25T14:03:06.589Z,21.20
2019-05-25T14:05:35.608Z,21.30
2019-05-25T14:08:04.408Z,21.50
2019-05-25T14:10:33.195Z,21.50
2019-05-25T14:13:02.028Z,21.50
2019-05-25T14:15:30.835Z,21.50
2019-05-25T14:17:59.567Z,21.60
2019-05-25T14:20:28.391Z,21.70
2019-05-25T14:22:57.113Z,21.60
2019-05-25T14:25:25.892Z,21.60
2019-05-25T14:27:54.858Z,21.60
2019-05-25T14:30:23.822Z,21.60
2019-05-25T14:32:53.182Z,21.40
2019-05-25T14:35:22.032Z,21.30
2019-05-25T14:37:51.144Z,21.20
2019-05-25T14:40:20.056Z,21.20
2019-05-25T14:42:49.082Z,21.20
2019-05-25T14:45:18.233Z,21.20
2019-05-25T14:47:47.000Z,21.30
2019-05-25T14:50:16.599Z,21.30
2019-05-25T14:52:45.825Z,21.20
2019-05-25T14:55:15.001Z,21.30
2019-05-25T14:57:43.812Z,21.30
2019-05-25T15:00:13.316Z,21.60
2019-05-25T15:02:42.480Z,21.60
2019-05-25T15:05:17.548Z,21.60
2019-05-25T15:07:46.348Z,21.70
2019-05-25T15:10:16.043Z,21.80
2019-05-25T15:12:44.788Z,21.50
2019-05-25T15:15:14.479Z,21.40
2019-05-25T15:17:43.551Z,21.40
2019-05-25T15:20:13.099Z,21.30
2019-05-25T15:22:41.820Z,21.20
2019-05-25T15:25:11.813Z,21.20
2019-05-25T15:27:40.828Z,21.20
2019-05-25T15:30:09.699Z,21.20
2019-05-25T15:32:38.552Z,21.10
2019-05-25T15:35:07.851Z,21.00
2019-05-25T15:37:36.800Z,20.80
2019-05-25T15:40:06.685Z,20.60
2019-05-25T15:42:35.750Z,20.50
2019-05-25T15:45:05.276Z,20.50
2019-05-25T15:47:34.236Z,20.50
2019-05-25T15:50:03.341Z,20.50
2019-05-25T15:52:32.411Z,20.50
2019-05-25T15:55:01.158Z,20.50
2019-05-25T15:57:30.035Z,20.60
2019-05-25T15:59:59.332Z,20.70
2019-05-25T16:02:36.693Z,20.70
2019-05-25T16:04:58.849Z,20.70
2019-05-25T16:07:27.794Z,20.70
2019-05-25T16:09:57.412Z,20.60
2019-05-25T16:12:26.230Z,20.50
2019-05-25T16:14:54.984Z,20.30
2019-05-25T16:17:26.166Z,20.30
2019-05-25T16:19:54.391Z,20.20
2019-05-25T16:22:23.228Z,20.10
2019-05-25T16:24:52.304Z,20.00
2019-05-25T16:27:21.255Z,20.00
2019-05-25T16:29:50.046Z,19.90
2019-05-25T16:32:18.901Z,19.80
2019-05-25T16:34:48.100Z,19.80
2019-05-25T16:37:17.369Z,19.70
2019-05-25T16:39:46.308Z,19.60
2019-05-25T16:42:15.038Z,19.50
2019-05-25T16:44:43.788Z,19.50
2019-05-25T16:47:12.591Z,19.50
2019-05-25T16:49:41.339Z,19.40
2019-05-25T16:52:10.154Z,19.30
2019-05-25T16:54:39.065Z,19.30
2019-05-25T16:57:08.113Z,19.20
2019-05-25T16:59:36.955Z,19.20
2019-05-25T17:02:05.792Z,19.20
2019-05-25T17:04:34.789Z,19.10
2019-05-25T17:07:03.715Z,19.00
2019-05-25T17:09:32.659Z,19.00
2019-05-25T17:12:01.520Z,18.90
2019-05-25T17:14:30.310Z,18.90
2019-05-25T17:16:59.034Z,18.80
2019-05-25T17:19:27.864Z,18.80
2019-05-25T17:21:57.064Z,18.70
2019-05-25T17:24:25.904Z,18.60
2019-05-25T17:26:54.715Z,18.60
2019-05-25T17:29:23.443Z,18.50
2019-05-25T17:31:52.247Z,18.40
2019-05-25T17:34:21.011Z,18.40
2019-05-25T17:36:49.847Z,18.40
2019-05-25T17:39:18.880Z,18.40
2019-05-25T17:41:47.662Z,18.40
2019-05-25T17:44:16.456Z,18.30
2019-05-25T17:46:45.219Z,18.30
2019-05-25T17:49:13.967Z,18.20
2019-05-25T17:51:45.890Z,18.10
2019-05-25T17:54:14.920Z,18.10
2019-05-25T17:56:43.956Z,18.10
2019-05-25T17:59:12.715Z,18.10
2019-05-25T18:01:41.586Z,18.00
2019-05-25T18:04:10.487Z,18.00
2019-05-25T18:06:39.273Z,17.90
2019-05-25T18:09:08.512Z,17.90
2019-05-25T18:11:37.571Z,17.80
2019-05-25T18:14:06.447Z,17.70
2019-05-25T18:16:35.306Z,17.60
2019-05-25T18:19:04.347Z,17.60
2019-05-25T18:21:33.379Z,17.50
2019-05-25T18:24:02.227Z,17.50
2019-05-25T18:26:31.000Z,17.50
2019-05-25T18:29:00.682Z,17.40
2019-05-25T18:31:29.810Z,17.30
2019-05-25T18:33:58.801Z,17.20
2019-05-25T18:36:27.648Z,17.10
2019-05-25T18:38:56.424Z,17.10
2019-05-25T18:41:25.204Z,17.00
2019-05-25T18:43:54.388Z,16.90
2019-05-25T18:46:23.306Z,16.80
2019-05-25T18:48:52.350Z,16.80
2019-05-25T18:51:21.176Z,16.70
2019-05-25T18:53:49.929Z,16.60
2019-05-25T18:56:19.078Z,16.60
2019-05-25T18:58:48.096Z,16.50
2019-05-25T19:01:16.899Z,16.40
2019-05-25T19:03:46.112Z,16.30
2019-05-25T19:06:14.969Z,16.30
2019-05-25T19:08:43.842Z,16.20
2019-05-25T19:11:12.736Z,16.10
2019-05-25T19:13:41.561Z,16.00
2019-05-25T19:16:10.503Z,15.90
2019-05-25T19:18:39.344Z,15.90
2019-05-25T19:21:08.556Z,15.80
2019-05-25T19:23:37.384Z,15.70
2019-05-25T19:26:06.322Z,15.70
2019-05-25T19:28:35.167Z,15.60
2019-05-25T19:31:04.040Z,15.60
2019-05-25T19:33:32.952Z,15.50
2019-05-25T19:36:01.678Z,15.40
2019-05-25T19:38:30.478Z,15.30
2019-05-25T19:40:59.330Z,15.30
2019-05-25T19:43:28.200Z,15.20
2019-05-25T19:45:57.624Z,15.20
2019-05-25T19:48:26.727Z,15.30
2019-05-25T19:50:56.502Z,15.30
2019-05-25T19:53:25.392Z,15.20
2019-05-25T19:55:54.484Z,15.30
2019-05-25T19:58:23.399Z,15.20
2019-05-25T20:00:52.288Z,15.20
2019-05-25T20:03:21.166Z,15.10
2019-05-25T20:05:50.159Z,15.00
2019-05-25T20:08:19.049Z,15.00
2019-05-25T20:10:48.195Z,15.00
2019-05-25T20:13:17.495Z,15.00
2019-05-25T20:15:46.774Z,14.80
2019-05-25T20:18:15.890Z,14.80
2019-05-25T20:20:45.427Z,14.70
2019-05-25T20:23:14.297Z,14.70
2019-05-25T20:25:43.103Z,14.60
2019-05-25T20:28:11.895Z,14.50
2019-05-25T20:30:41.520Z,14.40
2019-05-25T20:33:10.496Z,14.40
2019-05-25T20:35:39.433Z,14.30
2019-05-25T20:38:08.728Z,14.30
2019-05-25T20:40:37.902Z,14.30
2019-05-25T20:43:06.975Z,14.20
2019-05-25T20:45:36.007Z,14.20
2019-05-25T20:48:05.155Z,14.20
2019-05-25T20:50:34.106Z,14.10
2019-05-25T20:53:03.135Z,14.10
2019-05-25T20:55:32.270Z,14.00
2019-05-25T20:58:01.527Z,14.00
2019-05-25T21:00:30.616Z,13.90
2019-05-25T21:03:05.839Z,13.90
2019-05-25T21:05:30.892Z,13.90
2019-05-25T21:08:00.112Z,13.90
2019-05-25T21:10:29.355Z,13.80
2019-05-25T21:12:58.251Z,13.80
2019-05-25T21:15:27.304Z,13.70
2019-05-25T21:17:56.382Z,13.70
2019-05-25T21:20:25.456Z,13.70
2019-05-25T21:22:54.692Z,13.60
2019-05-25T21:25:23.564Z,13.50
2019-05-25T21:27:52.615Z,13.50
2019-05-25T21:30:21.463Z,13.50
2019-05-25T21:32:50.231Z,13.50
2019-05-25T21:35:19.501Z,13.50
2019-05-25T21:37:48.414Z,13.50
2019-05-25T21:40:17.434Z,13.50
2019-05-25T21:42:46.568Z,13.50
2019-05-25T21:45:16.251Z,13.50
2019-05-25T21:47:45.114Z,13.50
2019-05-25T21:50:14.231Z,13.40
2019-05-25T21:52:43.039Z,13.40
2019-05-25T21:55:12.241Z,13.40
2019-05-25T21:57:41.083Z,13.40
2019-05-25T22:00:11.953Z,13.30
2019-05-25T22:02:40.767Z,13.20
2019-05-25T22:05:09.783Z,13.10
2019-05-25T22:07:38.555Z,13.10
2019-05-25T22:10:08.007Z,13.00
2019-05-25T22:12:40.070Z,13.00
2019-05-25T22:15:09.493Z,12.90
2019-05-25T22:17:39.091Z,12.90
2019-05-25T22:20:09.417Z,12.90
2019-05-25T22:22:38.439Z,12.80
2019-05-25T22:25:07.998Z,12.80
2019-05-25T22:27:36.751Z,12.90
2019-05-25T22:30:06.002Z,12.90
2019-05-25T22:32:34.792Z,12.90
2019-05-25T22:35:03.655Z,12.90
2019-05-25T22:37:32.647Z,12.90
2019-05-25T22:40:01.425Z,12.90
2019-05-25T22:42:30.561Z,13.00
2019-05-25T22:44:59.403Z,12.90
2019-05-25T22:47:28.265Z,12.90
2019-05-25T22:49:57.048Z,12.90
2019-05-25T22:52:26.389Z,12.80
2019-05-25T22:54:55.430Z,12.80
2019-05-25T22:57:24.167Z,12.60
2019-05-25T22:59:52.922Z,12.60
2019-05-25T23:02:21.712Z,12.60
2019-05-25T23:04:50.741Z,12.60
2019-05-25T23:07:19.816Z,12.50
2019-05-25T23:09:48.895Z,12.50
2019-05-25T23:12:17.887Z,12.40
2019-05-25T23:14:47.357Z,12.50
2019-05-25T23:17:16.204Z,12.40
2019-05-25T23:19:44.975Z,12.50
2019-05-25T23:22:13.778Z,12.50
2019-05-25T23:24:42.839Z,12.40
2019-05-25T23:27:11.627Z,12.40
2019-05-25T23:29:40.405Z,12.30
2019-05-25T23:32:09.263Z,12.30
2019-05-25T23:34:38.093Z,12.40
2019-05-25T23:37:14.531Z,12.40
2019-05-25T23:39:37.938Z,12.30
2019-05-25T23:42:06.881Z,12.20
2019-05-25T23:44:35.980Z,12.20
2019-05-25T23:47:05.028Z,12.10
2019-05-25T23:49:33.859Z,12.10
2019-05-25T23:52:02.930Z,12.10
2019-05-25T23:54:31.719Z,12.10
2019-05-25T23:57:01.053Z,12.10
2019-05-25T23:59:29.850Z,12.10
